Latest Coastal Weather Observations for Port Pirie Airport AWS***

IDS60701

Issued at 12:25 am CST Tuesday 22 April 2014 (issued every 10 minutes, with the page automatically refreshed every 10 minutes)

About coastal observations | Map of coastal stations | Coastal observations for SA | Marine services | Other Formats
Station Details ID: 250006 Name: PORT PIRIE AERODROME AWS Lat: -33.23 Lon: 138.00 Height: 10.0 m
Data from the previous 72 hours. | See also: Recent months for locations in South Australia
Date/Time
CST
Temp

°C
Wind Pressure Rain
since 9am
mm
Weather Cloud Vis
km
Sea
Height
m
Swell
Dir
 
Speed
knots
Gust
knots
hPa Trend Height
m
Period
s
Dir
22/12:00am 21.7 N 7 14 - - 0.0 - - - - - - -
 
Date/Time
CST
Temp

°C
Wind Pressure Rain
since 9am
mm
Weather Cloud Vis
km
Sea
Height
m
Swell
Dir
 
Speed
knots
Gust
knots
hPa Trend Height
m
Period
s
Dir
21/11:30pm 20.6 NNW 4 8 - - 0.0 - - - - - - -
21/11:00pm 20.3 NNW 6 10 - - 0.0 - - - - - - -
21/10:30pm 23.5 N 9 13 - - 0.0 - - - - - - -
21/10:00pm 22.4 N 7 10 - - 0.0 - - - - - - -
21/09:30pm 23.0 N 6 9 - - 0.0 - - - - - - -
21/09:00pm 23.3 NNE 7 10 - - 0.0 - - - - - - -
21/08:30pm 24.9 N 9 14 - - 0.0 - - - - - - -
21/08:00pm 24.9 N 10 15 - - 0.0 - - - - - - -
21/07:30pm 24.7 N 10 13 - - 0.0 - - - - - - -
21/07:00pm 24.7 N 9 12 - - 0.0 - - - - - - -
21/06:30pm 25.2 N 9 13 - - 0.0 - - - - - - -
21/06:00pm 26.3 N 8 13 - - 0.0 - - - - - - -
21/05:30pm 26.6 N 9 16 - - 0.0 - - - - - - -
21/05:00pm 26.7 N 10 15 - - 0.0 - - - - - - -
21/04:30pm 27.2 N 10 16 - - 0.0 - - - - - - -
21/04:00pm 27.6 N 8 15 - - 0.0 - - - - - - -
21/03:30pm 28.6 N 11 17 - - 0.0 - - - - - - -
21/03:00pm 28.0 N 12 21 - - 0.0 - - - - - - -
21/02:30pm 27.5 N 13 22 - - 0.0 - - - - - - -
21/02:00pm 27.2 N 13 19 - - 0.0 - - - - - - -
21/01:30pm 27.1 N 13 24 - - 0.0 - - - - - - -
21/01:00pm 26.5 N 13 23 - - 0.0 - - - - - - -
21/12:30pm 26.4 N 15 26 - - 0.0 - - - - - - -
21/12:12pm 25.4 N 15 25 - - 0.0 - - - - - - -
21/12:00pm 26.0 N 14 24 - - 0.0 - - - - - - -
21/11:30am 25.3 N 13 24 - - 0.0 - - - - - - -
21/11:00am 24.3 N 14 23 - - 0.0 - - - - - - -
21/10:30am 23.8 N 11 20 - - 0.0 - - - - - - -
21/10:00am 22.9 N 9 16 - - 0.0 - - - - - - -
21/09:30am 22.0 N 8 13 - - 0.0 - - - - - - -
21/09:00am 20.8 N 9 14 - - 0.0 - - - - - - -
21/08:30am 20.6 N 9 15 - - 0.0 - - - - - - -
21/08:00am 20.2 N 9 16 - - 0.0 - - - - - - -
21/07:30am 18.9 N 6 12 - - 0.0 - - - - - - -
21/07:00am 19.5 N 9 13 - - 0.0 - - - - - - -
21/06:30am 19.4 N 6 10 - - 0.0 - - - - - - -
21/06:00am 19.4 N 6 9 - - 0.0 - - - - - - -
21/05:30am 20.6 N 6 10 - - 0.0 - - - - - - -
21/05:00am 20.3 NNE 9 12 - - 0.0 - - - - - - -
21/04:30am 20.8 NNE 11 15 - - 0.0 - - - - - - -
21/04:00am 20.9 NNE 11 16 - - 0.0 - - - - - - -
21/03:30am 20.7 NNE 10 15 - - 0.0 - - - - - - -
21/03:00am 20.2 NNE 11 14 - - 0.0 - - - - - - -
21/02:30am 19.7 NNE 9 13 - - 0.0 - - - - - - -
21/02:00am 18.9 NNE 7 13 - - 0.0 - - - - - - -
21/01:30am 16.4 NNE 5 6 - - 0.0 - - - - - - -
21/01:00am 15.1 ENE 1 2 - - 0.0 - - - - - - -
21/12:30am 14.6 ESE 1 1 - - 0.0 - - - - - - -
21/12:00am 13.8 E 1 2 - - 0.0 - - - - - - -
 
Date/Time
CST
Temp

°C
Wind Pressure Rain
since 9am
mm
Weather Cloud Vis
km
Sea
Height
m
Swell
Dir
 
Speed
knots
Gust
knots
hPa Trend Height
m
Period
s
Dir
20/11:30pm 13.7 ENE 2 2 - - 0.0 - - - - - - -
20/11:00pm 13.6 E 2 2 - - 0.0 - - - - - - -
20/10:30pm 13.4 ENE 2 4 - - 0.0 - - - - - - -
20/10:00pm 14.2 ESE 3 4 - - 0.0 - - - - - - -
20/09:30pm 15.0 SE 4 4 - - 0.0 - - - - - - -
20/09:00pm 14.6 SE 4 4 - - 0.0 - - - - - - -
20/08:30pm 14.9 ESE 3 5 - - 0.0 - - - - - - -
20/08:00pm 15.7 SE 3 4 - - 0.0 - - - - - - -
20/07:30pm 16.2 S 4 4 - - 0.0 - - - - - - -
20/07:00pm 17.0 SSE 4 5 - - 0.0 - - - - - - -
20/06:30pm 18.3 S 2 3 - - 0.0 - - - - - - -
20/06:00pm 19.4 S 2 3 - - 0.0 - - - - - - -
20/05:30pm 21.3 W 1 2 - - 0.0 - - - - - - -
20/05:00pm 22.4 WSW 2 4 - - 0.0 - - - - - - -
20/04:30pm 23.4 WNW 3 8 - - 0.0 - - - - - - -
20/04:00pm 24.7 W 3 5 - - 0.0 - - - - - - -
20/03:30pm 24.7 WNW 3 6 - - 0.0 - - - - - - -
20/03:00pm 25.1 W 3 5 - - 0.0 - - - - - - -
20/02:30pm 24.7 W 4 9 - - 0.0 - - - - - - -
20/02:00pm 24.7 W 3 7 - - 0.0 - - - - - - -
20/01:30pm 24.5 WSW 4 8 - - 0.0 - - - - - - -
20/01:00pm 23.9 W 3 8 - - 0.0 - - - - - - -
20/12:30pm 23.6 ESE 2 5 - - 0.0 - - - - - - -
20/12:00pm 23.3 W 2 4 - - 0.0 - - - - - - -
20/11:30am 22.9 SSE 2 6 - - 0.0 - - - - - - -
20/11:00am 21.8 SSE 2 6 - - 0.0 - - - - - - -
20/10:30am 21.3 ESE 4 6 - - 0.0 - - - - - - -
20/10:00am 19.8 ESE 4 6 - - 0.0 - - - - - - -
20/09:30am 19.4 E 1 3 - - 0.0 - - - - - - -
20/09:00am 17.3 NE 1 2 - - 0.0 - - - - - - -
20/08:30am 15.4 CALM 0 0 - - 0.0 - - - - - - -
20/08:00am 12.7 ENE 1 3 - - 0.0 - - - - - - -
20/07:30am 10.4 E 2 2 - - 0.0 - - - - - - -
20/07:00am 8.7 ESE 2 2 - - 0.0 - - - - - - -
20/06:30am 8.7 E 2 3 - - 0.0 - - - - - - -
20/06:00am 9.1 SE 2 2 - - 0.0 - - - - - - -
20/05:30am 9.4 S 3 3 - - 0.0 - - - - - - -
20/05:00am 9.8 SSE 3 5 - - 0.0 - - - - - - -
20/04:30am 10.3 SSE 4 5 - - 0.0 - - - - - - -
20/04:00am 10.0 SSE 4 5 - - 0.0 - - - - - - -
20/03:30am 10.9 S 5 7 - - 0.0 - - - - - - -
20/03:00am 11.5 SSE 6 8 - - 0.0 - - - - - - -
20/02:30am 11.7 S 5 7 - - 0.0 - - - - - - -
20/02:00am 11.6 S 4 6 - - 0.0 - - - - - - -
20/01:30am 12.6 SSE 4 5 - - 0.0 - - - - - - -
20/01:00am 13.7 SSE 6 8 - - 0.0 - - - - - - -
20/12:30am 14.0 S 6 8 - - 0.0 - - - - - - -
20/12:00am 13.8 S 6 9 - - 0.0 - - - - - - -
 
Date/Time
CST
Temp

°C
Wind Pressure Rain
since 9am
mm
Weather Cloud Vis
km
Sea
Height
m
Swell
Dir
 
Speed
knots
Gust
knots
hPa Trend Height
m
Period
s
Dir
19/11:30pm 13.6 SSE 7 9 - - 0.0 - - - - - - -
19/11:00pm 12.7 S 7 9 - - 0.0 - - - - - - -
19/10:30pm 12.5 S 6 8 - - 0.0 - - - - - - -
19/10:00pm 12.5 SSE 6 8 - - 0.0 - - - - - - -
19/09:30pm 12.7 SSE 3 5 - - 0.0 - - - - - - -
19/09:00pm 13.0 SE 4 5 - - 0.0 - - - - - - -
19/08:30pm 12.4 ESE 3 4 - - 0.0 - - - - - - -
19/08:00pm 13.3 SE 4 4 - - 0.0 - - - - - - -
19/07:30pm 13.1 SE 4 4 - - 0.0 - - - - - - -
19/07:00pm 13.5 SSE 4 4 - - 0.0 - - - - - - -
19/06:30pm 14.6 S 5 6 - - 0.0 - - - - - - -
19/06:00pm 15.8 S 5 6 - - 0.0 - - - - - - -
19/05:30pm 17.6 S 7 8 - - 0.0 - - - - - - -
19/05:00pm 19.0 S 8 10 - - 0.0 - - - - - - -
19/04:30pm 19.6 S 7 9 - - 0.0 - - - - - - -
19/04:00pm 20.3 SSW 7 10 - - 0.0 - - - - - - -
19/03:30pm 21.0 SSW 7 10 - - 0.0 - - - - - - -
19/03:00pm 20.4 SSW 6 10 - - 0.0 - - - - - - -
19/02:30pm 20.3 WSW 3 7 - - 0.0 - - - - - - -
19/02:00pm 20.7 W 3 7 - - 0.0 - - - - - - -
19/01:30pm 20.6 SW 4 8 - - 0.0 - - - - - - -
19/01:00pm 20.4 WNW 3 6 - - 0.0 - - - - - - -
19/12:30pm 19.6 WSW 3 6 - - 0.0 - - - - - - -
19/12:00pm 20.5 NNE 3 6 - - 0.0 - - - - - - -
19/11:30am 18.9 N 3 6 - - 0.0 - - - - - - -
19/11:00am 18.8 NNW 2 5 - - 0.0 - - - - - - -
19/10:30am 18.0 NNW 2 5 - - 0.0 - - - - - - -
19/10:00am 17.3 N 2 4 - - 0.0 - - - - - - -
19/09:30am 16.9 E 1 3 - - 0.0 - - - - - - -
19/09:00am 15.9 S 1 3 - - 0.0 - - - - - - -
19/08:30am 14.0 SSW 3 4 - - 0.0 - - - - - - -
19/08:00am 11.8 S 3 4 - - 0.0 - - - - - - -
19/07:30am 10.0 SSW 3 3 - - 0.0 - - - - - - -
19/07:00am 9.5 SSW 3 3 - - 0.0 - - - - - - -
19/06:30am 8.8 SE 3 4 - - 0.0 - - - - - - -
19/06:00am 9.2 S 3 4 - - 0.0 - - - - - - -
19/05:30am 9.8 S 3 3 - - 0.0 - - - - - - -
19/05:00am 10.3 SSE 5 7 - - 0.0 - - - - - - -
19/04:30am 10.0 SSE 7 9 - - 0.0 - - - - - - -
19/04:00am 10.0 S 7 9 - - 0.0 - - - - - - -
19/03:30am 9.9 S 7 9 - - 0.0 - - - - - - -
19/03:00am 9.5 S 6 9 - - 0.0 - - - - - - -
19/02:30am 9.7 S 7 9 - - 0.0 - - - - - - -
19/02:00am 10.2 SSE 8 10 - - 0.0 - - - - - - -
19/01:30am 10.4 SSE 8 11 - - 0.0 - - - - - - -
19/01:00am 10.3 S 6 9 - - 0.0 - - - - - - -
19/12:30am 10.3 S 6 8 - - 0.0 - - - - - - -

Other Formats:

Comma delimited format used in spreadsheet applications
http://www.bom.gov.au/fwo/IDS60701/IDS60701.99001.axf

JavaScript Object Notation format (JSON) in row-major order
http://www.bom.gov.au/fwo/IDS60701/IDS60701.99001.json